Ieper, Belgium
Current Conditions -  °F | °C
As of 4:55 PM on Wednesday 26 Nov 2014 (Local Time) from EBFN Reporting Station
Moderate Fog Moderate Fog  
Wind Chill: 43°   Ceiling: 300
Heat Index: 46°   Visibility: 0.56mi
Dew Point: 46°   Wind: 7mph
Humidity: 100%   Direction: 130°SE
Pressure: 29.83"   Gusts: NA
Location:  50.85°N, 2.89°E
Report Text: EBFN 261555Z 13006KT 0900 FG SCT001 BKN003 08/08 Q1010 RED FCST CANCEL
Loading
Personal Weather Stations






























Interactive Weather Map New forecast layout! Learn more

10-Day Weather Forecast

Advertisements
Track Severe Weather on mobile